Terminal Aerodrome Forecast
Issued by NWS Wilmington, OH

Current Version | Previous Version | Text Only | Print | Product List | Glossary Off
Versions: 1 2 3 4 5 6 7 8 9 10 11 12 13 14 15 16

263
FTUS41 KILN 220327 AAB
TAFDAY
TAF AMD
KDAY 220327Z 2203/2224 31013G24KT P6SM VCSH OVC040
      TEMPO 2203/2204 5SM -RASN OVC018
     FM220600 33008KT P6SM SCT050
     FM221200 34010KT P6SM SCT050
     FM222100 34007KT P6SM SKC=

USA.gov is the U.S. government's official web portal to all federal, state and local government web resources and services.